createdAt,value
2019-02-17T00:00:59.385Z,100.00
2019-02-17T00:03:26.047Z,100.00
2019-02-17T00:05:52.736Z,100.00
2019-02-17T00:08:19.449Z,100.00
2019-02-17T00:10:46.376Z,100.00
2019-02-17T00:13:13.903Z,100.00
2019-02-17T00:15:40.799Z,100.00
2019-02-17T00:18:07.627Z,100.00
2019-02-17T00:20:35.128Z,100.00
2019-02-17T00:23:02.241Z,100.00
2019-02-17T00:25:29.535Z,100.00
2019-02-17T00:27:56.798Z,100.00
2019-02-17T00:30:24.132Z,100.00
2019-02-17T00:32:51.404Z,100.00
2019-02-17T00:35:18.700Z,100.00
2019-02-17T00:37:46.825Z,100.00
2019-02-17T00:40:14.329Z,100.00
2019-02-17T00:42:41.013Z,100.00
2019-02-17T00:45:08.518Z,100.00
2019-02-17T00:47:36.368Z,100.00
2019-02-17T00:50:04.583Z,100.00
2019-02-17T00:52:32.067Z,100.00
2019-02-17T00:55:00.041Z,100.00
2019-02-17T00:57:27.918Z,100.00
2019-02-17T00:59:54.988Z,100.00
2019-02-17T01:02:23.073Z,100.00
2019-02-17T01:04:50.804Z,100.00
2019-02-17T01:07:17.610Z,100.00
2019-02-17T01:09:45.018Z,100.00
2019-02-17T01:12:12.258Z,100.00
2019-02-17T01:14:39.187Z,100.00
2019-02-17T01:17:06.234Z,100.00
2019-02-17T01:19:34.525Z,100.00
2019-02-17T01:22:01.485Z,100.00
2019-02-17T01:24:29.018Z,100.00
2019-02-17T01:26:55.723Z,100.00
2019-02-17T01:29:54.871Z,100.00
2019-02-17T01:32:50.143Z,100.00
2019-02-17T01:35:15.677Z,100.00
2019-02-17T01:37:42.389Z,100.00
2019-02-17T01:40:10.055Z,100.00
2019-02-17T01:42:36.865Z,100.00
2019-02-17T01:45:04.879Z,100.00
2019-02-17T01:47:32.551Z,100.00
2019-02-17T01:49:59.780Z,100.00
2019-02-17T01:52:27.087Z,100.00
2019-02-17T01:54:54.622Z,100.00
2019-02-17T01:57:21.874Z,100.00
2019-02-17T01:59:48.823Z,100.00
2019-02-17T02:02:16.272Z,100.00
2019-02-17T02:04:43.070Z,100.00
2019-02-17T02:07:10.245Z,100.00
2019-02-17T02:09:37.290Z,100.00
2019-02-17T02:12:04.430Z,100.00
2019-02-17T02:14:31.723Z,100.00
2019-02-17T02:16:58.772Z,100.00
2019-02-17T02:19:25.535Z,100.00
2019-02-17T02:21:52.856Z,100.00
2019-02-17T02:24:19.546Z,100.00
2019-02-17T02:26:46.303Z,100.00
2019-02-17T02:29:13.357Z,100.00
2019-02-17T02:31:40.515Z,100.00
2019-02-17T02:34:07.991Z,100.00
2019-02-17T02:36:35.298Z,100.00
2019-02-17T02:39:03.716Z,100.00
2019-02-17T02:41:34.945Z,100.00
2019-02-17T02:44:01.029Z,100.00
2019-02-17T02:46:28.422Z,100.00
2019-02-17T02:48:57.951Z,100.00
2019-02-17T02:51:24.741Z,100.00
2019-02-17T02:53:51.668Z,100.00
2019-02-17T02:56:18.356Z,100.00
2019-02-17T02:58:45.033Z,100.00
2019-02-17T03:01:12.453Z,100.00
2019-02-17T03:03:39.918Z,100.00
2019-02-17T03:06:14.729Z,100.00
2019-02-17T03:08:41.984Z,100.00
2019-02-17T03:11:08.921Z,100.00
2019-02-17T03:13:36.125Z,100.00
2019-02-17T03:16:02.914Z,100.00
2019-02-17T03:18:31.025Z,100.00
2019-02-17T03:20:58.269Z,100.00
2019-02-17T03:23:24.961Z,100.00
2019-02-17T03:25:51.982Z,100.00
2019-02-17T03:28:19.495Z,100.00
2019-02-17T03:30:46.673Z,100.00
2019-02-17T03:33:13.903Z,100.00
2019-02-17T03:35:41.049Z,100.00
2019-02-17T03:38:07.997Z,100.00
2019-02-17T03:40:34.797Z,100.00
2019-02-17T03:43:02.036Z,100.00
2019-02-17T03:45:29.480Z,100.00
2019-02-17T03:47:56.768Z,100.00
2019-02-17T03:50:23.862Z,100.00
2019-02-17T03:52:50.680Z,100.00
2019-02-17T03:55:19.134Z,100.00
2019-02-17T03:57:46.058Z,100.00
2019-02-17T04:00:16.856Z,100.00
2019-02-17T04:02:43.269Z,100.00
2019-02-17T04:05:10.633Z,100.00
2019-02-17T04:07:37.669Z,100.00
2019-02-17T04:10:05.248Z,100.00
2019-02-17T04:12:32.532Z,100.00
2019-02-17T04:14:59.469Z,100.00
2019-02-17T04:17:26.142Z,100.00
2019-02-17T04:19:53.506Z,100.00
2019-02-17T04:22:21.309Z,100.00
2019-02-17T04:24:48.325Z,100.00
2019-02-17T04:27:15.416Z,100.00
2019-02-17T04:29:42.858Z,100.00
2019-02-17T04:32:10.522Z,100.00
2019-02-17T04:34:38.151Z,100.00
2019-02-17T04:37:05.207Z,100.00
2019-02-17T04:39:32.879Z,100.00
2019-02-17T04:41:59.557Z,100.00
2019-02-17T04:44:27.610Z,100.00
2019-02-17T04:46:55.353Z,100.00
2019-02-17T04:49:22.922Z,100.00
2019-02-17T04:51:50.853Z,100.00
2019-02-17T04:54:17.550Z,100.00
2019-02-17T04:56:44.733Z,100.00
2019-02-17T04:59:12.966Z,100.00
2019-02-17T05:01:40.039Z,100.00
2019-02-17T05:04:07.534Z,100.00
2019-02-17T05:06:34.437Z,100.00
2019-02-17T05:09:01.729Z,100.00
2019-02-17T05:11:30.915Z,100.00
2019-02-17T05:13:58.117Z,100.00
2019-02-17T05:16:25.586Z,100.00
2019-02-17T05:18:52.806Z,100.00
2019-02-17T05:21:19.860Z,100.00
2019-02-17T05:23:48.517Z,100.00
2019-02-17T05:26:15.613Z,100.00
2019-02-17T05:28:42.390Z,100.00
2019-02-17T05:31:09.978Z,100.00
2019-02-17T05:33:36.646Z,100.00
2019-02-17T05:36:03.384Z,100.00
2019-02-17T05:38:30.322Z,100.00
2019-02-17T05:40:57.429Z,100.00
2019-02-17T05:43:24.774Z,100.00
2019-02-17T05:45:52.163Z,100.00
2019-02-17T05:48:18.948Z,100.00
2019-02-17T05:50:45.623Z,100.00
2019-02-17T05:53:12.889Z,100.00
2019-02-17T05:55:40.870Z,100.00
2019-02-17T05:58:08.158Z,100.00
2019-02-17T06:00:37.007Z,100.00
2019-02-17T06:03:03.777Z,100.00
2019-02-17T06:05:31.098Z,100.00
2019-02-17T06:07:59.023Z,100.00
2019-02-17T06:10:26.997Z,100.00
2019-02-17T06:12:53.776Z,100.00
2019-02-17T06:15:20.748Z,100.00
2019-02-17T06:17:47.430Z,100.00
2019-02-17T06:20:14.722Z,100.00
2019-02-17T06:22:42.508Z,100.00
2019-02-17T06:25:09.810Z,100.00
2019-02-17T06:27:37.493Z,100.00
2019-02-17T06:30:04.560Z,100.00
2019-02-17T06:32:31.797Z,100.00
2019-02-17T06:34:59.008Z,100.00
2019-02-17T06:37:25.983Z,100.00
2019-02-17T06:39:53.019Z,100.00
2019-02-17T06:42:20.169Z,100.00
2019-02-17T06:44:47.960Z,100.00
2019-02-17T06:47:19.914Z,100.00
2019-02-17T06:49:47.331Z,100.00
2019-02-17T06:52:14.929Z,100.00
2019-02-17T06:54:43.763Z,100.00
2019-02-17T06:57:21.206Z,100.00
2019-02-17T06:59:50.456Z,100.00
2019-02-17T07:02:17.738Z,100.00
2019-02-17T07:05:22.925Z,100.00
2019-02-17T07:07:50.246Z,100.00
2019-02-17T07:10:17.310Z,100.00
2019-02-17T07:12:44.349Z,100.00
2019-02-17T07:15:11.619Z,100.00
2019-02-17T07:17:38.779Z,100.00
2019-02-17T07:20:05.703Z,100.00
2019-02-17T07:22:33.242Z,100.00
2019-02-17T07:25:00.906Z,100.00
2019-02-17T07:27:27.693Z,100.00
2019-02-17T07:29:55.022Z,100.00
2019-02-17T07:32:21.710Z,100.00
2019-02-17T07:34:48.904Z,100.00
2019-02-17T07:37:18.780Z,100.00
2019-02-17T07:39:45.863Z,100.00
2019-02-17T07:42:13.243Z,100.00
2019-02-17T07:44:40.644Z,100.00
2019-02-17T07:47:07.283Z,100.00
2019-02-17T07:49:34.068Z,100.00
2019-02-17T07:52:01.733Z,100.00
2019-02-17T07:54:28.824Z,100.00
2019-02-17T07:56:56.039Z,100.00
2019-02-17T07:59:23.686Z,100.00
2019-02-17T08:01:50.914Z,100.00
2019-02-17T08:04:17.593Z,100.00
2019-02-17T08:06:44.609Z,100.00
2019-02-17T08:09:12.569Z,100.00
2019-02-17T08:11:39.679Z,100.00
2019-02-17T08:14:06.586Z,100.00
2019-02-17T08:16:33.516Z,100.00
2019-02-17T08:19:01.157Z,100.00
2019-02-17T08:21:28.288Z,100.00
2019-02-17T08:23:56.020Z,100.00
2019-02-17T08:26:23.453Z,100.00
2019-02-17T08:28:50.160Z,100.00
2019-02-17T08:31:17.332Z,100.00
2019-02-17T08:33:44.023Z,100.00
2019-02-17T08:36:11.078Z,100.00
2019-02-17T08:38:38.984Z,100.00
2019-02-17T08:41:05.793Z,100.00
2019-02-17T08:43:33.285Z,100.00
2019-02-17T08:46:00.568Z,100.00
2019-02-17T08:48:30.337Z,100.00
2019-02-17T08:50:58.111Z,100.00
2019-02-17T08:53:25.160Z,100.00
2019-02-17T08:55:52.921Z,100.00
2019-02-17T08:58:20.172Z,100.00
2019-02-17T09:00:46.850Z,100.00
2019-02-17T09:03:15.207Z,100.00
2019-02-17T09:05:44.412Z,100.00
2019-02-17T09:08:11.387Z,100.00
2019-02-17T09:10:39.090Z,100.00
2019-02-17T09:13:05.862Z,100.00
2019-02-17T09:15:33.087Z,100.00
2019-02-17T09:18:01.066Z,100.00
2019-02-17T09:20:28.589Z,100.00
2019-02-17T09:22:56.022Z,100.00
2019-02-17T09:25:22.904Z,100.00
2019-02-17T09:27:50.165Z,100.00
2019-02-17T09:30:17.481Z,100.00
2019-02-17T09:32:45.195Z,100.00
2019-02-17T09:35:11.862Z,100.00
2019-02-17T09:37:38.932Z,100.00
2019-02-17T09:40:08.178Z,100.00
2019-02-17T09:42:35.428Z,100.00
2019-02-17T09:45:03.183Z,100.00
2019-02-17T09:47:30.238Z,100.00
2019-02-17T09:49:57.434Z,100.00
2019-02-17T09:52:24.247Z,100.00
2019-02-17T09:54:51.731Z,100.00
2019-02-17T09:57:18.753Z,100.00
2019-02-17T09:59:46.030Z,100.00
2019-02-17T10:02:13.002Z,100.00
2019-02-17T10:04:39.934Z,100.00
2019-02-17T10:07:06.616Z,100.00
2019-02-17T10:09:33.864Z,100.00
2019-02-17T10:12:01.442Z,100.00
2019-02-17T10:14:28.710Z,100.00
2019-02-17T10:16:55.581Z,100.00
2019-02-17T10:19:22.549Z,100.00
2019-02-17T10:21:49.744Z,100.00
2019-02-17T10:24:16.426Z,100.00
2019-02-17T10:26:43.507Z,100.00
2019-02-17T10:29:10.813Z,100.00
2019-02-17T10:31:38.691Z,100.00
2019-02-17T10:34:06.029Z,100.00
2019-02-17T10:36:32.726Z,100.00
2019-02-17T10:39:00.480Z,100.00
2019-02-17T10:41:29.088Z,100.00
2019-02-17T10:43:56.024Z,99.68
2019-02-17T10:46:24.071Z,98.26
2019-02-17T10:48:50.774Z,98.26
2019-02-17T10:51:17.457Z,100.00
2019-02-17T10:53:45.223Z,100.00
2019-02-17T10:56:12.558Z,94.11
2019-02-17T10:58:39.881Z,93.65
2019-02-17T11:01:06.694Z,91.32
2019-02-17T11:03:34.039Z,93.24
2019-02-17T11:06:01.257Z,94.09
2019-02-17T11:08:27.938Z,92.23
2019-02-17T11:10:56.039Z,90.87
2019-02-17T11:13:24.234Z,94.54
2019-02-17T11:15:51.263Z,96.38
2019-02-17T11:18:18.509Z,92.09
2019-02-17T11:20:46.869Z,92.33
2019-02-17T11:23:14.028Z,90.66
2019-02-17T11:25:41.379Z,90.42
2019-02-17T11:28:08.682Z,87.23
2019-02-17T11:30:35.693Z,85.08
2019-02-17T11:33:02.674Z,83.97
2019-02-17T11:35:30.220Z,85.41
2019-02-17T11:37:57.535Z,83.94
2019-02-17T11:40:25.354Z,82.77
2019-02-17T11:42:52.946Z,77.79
2019-02-17T11:45:20.065Z,78.74
2019-02-17T11:47:47.331Z,79.18
2019-02-17T11:50:15.824Z,80.38
2019-02-17T11:52:42.647Z,75.05
2019-02-17T11:55:10.587Z,75.25
2019-02-17T11:57:38.978Z,77.55
2019-02-17T12:00:12.701Z,74.82
2019-02-17T12:02:39.935Z,73.74
2019-02-17T12:05:08.599Z,73.82
2019-02-17T12:07:38.938Z,77.25
2019-02-17T12:10:06.553Z,70.86
2019-02-17T12:12:33.345Z,73.35
2019-02-17T12:15:00.393Z,69.92
2019-02-17T12:17:28.364Z,69.08
2019-02-17T12:20:01.941Z,72.02
2019-02-17T12:22:40.669Z,71.91
2019-02-17T12:25:17.832Z,68.47
2019-02-17T12:27:51.869Z,66.45
2019-02-17T12:30:21.652Z,67.03
2019-02-17T12:32:48.442Z,65.65
2019-02-17T12:35:15.686Z,61.70
2019-02-17T12:37:42.641Z,61.70
2019-02-17T12:40:10.917Z,63.16
2019-02-17T12:42:38.098Z,61.27
2019-02-17T12:45:08.705Z,61.03
2019-02-17T12:47:36.645Z,61.29
2019-02-17T12:50:05.959Z,59.56
2019-02-17T12:52:32.895Z,59.13
2019-02-17T12:55:00.366Z,58.58
2019-02-17T12:57:27.529Z,58.30
2019-02-17T12:59:55.065Z,58.33
2019-02-17T13:02:23.504Z,59.62
2019-02-17T13:04:50.195Z,59.80
2019-02-17T13:07:17.221Z,58.62
2019-02-17T13:09:44.388Z,54.71
2019-02-17T13:12:11.941Z,54.15
2019-02-17T13:14:40.618Z,53.70
2019-02-17T13:17:08.067Z,48.33
2019-02-17T13:19:34.844Z,48.25
2019-02-17T13:22:01.815Z,49.35
2019-02-17T13:24:28.902Z,47.70
2019-02-17T13:26:56.766Z,48.01
2019-02-17T13:29:24.876Z,49.69
2019-02-17T13:31:52.094Z,49.87
2019-02-17T13:34:19.171Z,48.92
2019-02-17T13:36:46.407Z,46.12
2019-02-17T13:39:13.586Z,45.48
2019-02-17T13:41:40.793Z,45.97
2019-02-17T13:44:08.406Z,44.60
2019-02-17T13:46:35.645Z,43.05
2019-02-17T13:49:03.577Z,42.93
2019-02-17T13:51:30.896Z,44.35
2019-02-17T13:53:59.225Z,40.68
2019-02-17T13:56:26.366Z,38.58
2019-02-17T13:58:53.682Z,42.30
2019-02-17T14:01:20.977Z,43.49
2019-02-17T14:03:49.396Z,41.76
2019-02-17T14:06:16.341Z,40.92
2019-02-17T14:08:43.537Z,41.05
2019-02-17T14:11:10.585Z,39.43
2019-02-17T14:13:37.630Z,39.98
2019-02-17T14:16:04.790Z,39.36
2019-02-17T14:18:32.051Z,39.32
2019-02-17T14:20:58.818Z,37.68
2019-02-17T14:23:26.449Z,37.68
2019-02-17T14:25:53.915Z,38.57
2019-02-17T14:28:20.617Z,38.34
2019-02-17T14:30:48.023Z,36.69
2019-02-17T14:33:15.471Z,35.71
2019-02-17T14:35:42.137Z,34.68
2019-02-17T14:38:09.353Z,36.35
2019-02-17T14:40:36.482Z,35.95
2019-02-17T14:43:03.289Z,38.50
2019-02-17T14:45:31.281Z,37.48
2019-02-17T14:47:58.330Z,37.82
2019-02-17T14:50:25.261Z,38.20
2019-02-17T14:52:52.546Z,38.10
2019-02-17T14:55:19.913Z,38.34
2019-02-17T14:57:47.030Z,39.09
2019-02-17T15:00:15.216Z,39.94
2019-02-17T15:02:42.557Z,41.13
2019-02-17T15:05:10.237Z,41.18
2019-02-17T15:07:37.046Z,44.08
2019-02-17T15:10:04.750Z,43.60
2019-02-17T15:12:31.879Z,44.16
2019-02-17T15:14:59.699Z,43.91
2019-02-17T15:17:26.392Z,44.76
2019-02-17T15:19:53.637Z,46.54
2019-02-17T15:22:20.583Z,45.23
2019-02-17T15:24:47.625Z,46.60
2019-02-17T15:27:15.711Z,47.78
2019-02-17T15:29:43.497Z,47.83
2019-02-17T15:32:10.197Z,48.21
2019-02-17T15:34:37.181Z,50.01
2019-02-17T15:37:04.147Z,51.91
2019-02-17T15:39:31.528Z,51.59
2019-02-17T15:41:58.907Z,52.54
2019-02-17T15:44:29.444Z,53.17
2019-02-17T15:46:56.785Z,53.05
2019-02-17T15:49:23.945Z,54.18
2019-02-17T15:51:50.755Z,56.41
2019-02-17T15:54:17.650Z,56.71
2019-02-17T15:56:44.764Z,58.29
2019-02-17T15:59:12.225Z,61.36
2019-02-17T16:01:39.394Z,61.51
2019-02-17T16:04:06.519Z,61.88
2019-02-17T16:06:33.605Z,64.04
2019-02-17T16:09:00.370Z,65.29
2019-02-17T16:11:27.072Z,66.45
2019-02-17T16:13:58.700Z,69.34
2019-02-17T16:16:26.676Z,69.11
2019-02-17T16:18:54.241Z,69.48
2019-02-17T16:21:23.531Z,73.22
2019-02-17T16:23:51.351Z,73.57
2019-02-17T16:26:21.839Z,73.24
2019-02-17T16:28:54.250Z,75.28
2019-02-17T16:31:22.356Z,76.00
2019-02-17T16:33:49.739Z,76.79
2019-02-17T16:36:16.890Z,77.60
2019-02-17T16:38:44.083Z,78.42
2019-02-17T16:41:11.150Z,77.96
2019-02-17T16:43:39.139Z,78.90
2019-02-17T16:46:07.031Z,79.50
2019-02-17T16:48:34.285Z,80.45
2019-02-17T16:51:01.440Z,80.72
2019-02-17T16:53:30.287Z,81.46
2019-02-17T16:55:57.759Z,80.88
2019-02-17T16:58:24.801Z,84.35
2019-02-17T17:00:52.069Z,86.24
2019-02-17T17:03:19.384Z,86.17
2019-02-17T17:05:46.560Z,86.82
2019-02-17T17:08:13.427Z,86.77
2019-02-17T17:10:41.383Z,89.16
2019-02-17T17:13:08.742Z,90.48
2019-02-17T17:15:36.196Z,92.38
2019-02-17T17:18:08.906Z,94.33
2019-02-17T17:20:35.858Z,95.81
2019-02-17T17:23:05.277Z,95.41
2019-02-17T17:25:32.533Z,97.86
2019-02-17T17:28:02.574Z,98.15
2019-02-17T17:30:29.986Z,99.09
2019-02-17T17:32:57.250Z,100.00
2019-02-17T17:35:24.247Z,100.00
2019-02-17T17:37:51.050Z,100.00
2019-02-17T17:40:18.467Z,100.00
2019-02-17T17:42:45.717Z,100.00
2019-02-17T17:45:13.485Z,100.00
2019-02-17T17:47:44.644Z,100.00
2019-02-17T17:50:12.558Z,100.00
2019-02-17T17:52:39.446Z,100.00
2019-02-17T17:55:06.394Z,100.00
2019-02-17T17:57:34.083Z,100.00
2019-02-17T18:00:02.088Z,100.00
2019-02-17T18:02:31.453Z,100.00
2019-02-17T18:05:08.522Z,100.00
2019-02-17T18:07:28.751Z,100.00
2019-02-17T18:09:56.015Z,100.00
2019-02-17T18:12:23.775Z,100.00
2019-02-17T18:14:51.025Z,100.00
2019-02-17T18:17:17.768Z,100.00
2019-02-17T18:19:45.405Z,100.00
2019-02-17T18:22:12.585Z,100.00
2019-02-17T18:24:39.571Z,100.00
2019-02-17T18:27:07.177Z,100.00
2019-02-17T18:29:35.013Z,100.00
2019-02-17T18:32:02.626Z,100.00
2019-02-17T18:34:29.355Z,100.00
2019-02-17T18:36:56.389Z,100.00
2019-02-17T18:39:23.859Z,100.00
2019-02-17T18:41:51.336Z,100.00
2019-02-17T18:44:18.117Z,100.00
2019-02-17T18:46:44.985Z,100.00
2019-02-17T18:49:11.740Z,100.00
2019-02-17T18:51:38.768Z,100.00
2019-02-17T18:54:05.589Z,100.00
2019-02-17T18:56:33.868Z,100.00
2019-02-17T18:59:00.828Z,100.00
2019-02-17T19:01:28.109Z,100.00
2019-02-17T19:03:55.514Z,100.00
2019-02-17T19:06:22.450Z,100.00
2019-02-17T19:08:49.169Z,100.00
2019-02-17T19:11:16.877Z,100.00
2019-02-17T19:13:44.859Z,100.00
2019-02-17T19:16:11.593Z,100.00
2019-02-17T19:18:38.451Z,100.00
2019-02-17T19:21:06.418Z,100.00
2019-02-17T19:23:33.361Z,100.00
2019-02-17T19:26:00.507Z,100.00
2019-02-17T19:28:28.406Z,100.00
2019-02-17T19:30:55.273Z,100.00
2019-02-17T19:33:21.951Z,100.00
2019-02-17T19:35:49.954Z,100.00
2019-02-17T19:38:17.192Z,100.00
2019-02-17T19:40:44.013Z,100.00
2019-02-17T19:43:10.703Z,100.00
2019-02-17T19:45:37.846Z,100.00
2019-02-17T19:48:07.109Z,100.00
2019-02-17T19:50:34.066Z,100.00
2019-02-17T19:53:01.431Z,100.00
2019-02-17T19:55:28.104Z,100.00
2019-02-17T19:57:54.881Z,100.00
2019-02-17T20:00:23.354Z,100.00
2019-02-17T20:03:05.447Z,100.00
2019-02-17T20:05:35.701Z,100.00
2019-02-17T20:08:02.846Z,100.00
2019-02-17T20:10:30.546Z,100.00
2019-02-17T20:12:58.149Z,100.00
2019-02-17T20:15:28.838Z,100.00
2019-02-17T20:17:56.895Z,100.00
2019-02-17T20:20:23.994Z,100.00
2019-02-17T20:22:52.480Z,100.00
2019-02-17T20:25:19.351Z,100.00
2019-02-17T20:27:46.385Z,100.00
2019-02-17T20:30:13.532Z,100.00
2019-02-17T20:32:40.790Z,100.00
2019-02-17T20:35:08.363Z,100.00
2019-02-17T20:37:35.168Z,100.00
2019-02-17T20:40:02.008Z,100.00
2019-02-17T20:42:29.274Z,100.00
2019-02-17T20:44:56.297Z,100.00
2019-02-17T20:47:23.010Z,100.00
2019-02-17T20:49:49.698Z,100.00
2019-02-17T20:52:16.533Z,100.00
2019-02-17T20:54:43.509Z,100.00
2019-02-17T20:57:10.508Z,100.00
2019-02-17T20:59:38.011Z,100.00
2019-02-17T21:02:06.254Z,100.00
2019-02-17T21:04:33.145Z,100.00
2019-02-17T21:07:00.240Z,100.00
2019-02-17T21:09:27.015Z,100.00
2019-02-17T21:11:55.180Z,100.00
2019-02-17T21:14:22.523Z,100.00
2019-02-17T21:16:49.674Z,100.00
2019-02-17T21:19:16.986Z,100.00
2019-02-17T21:21:44.075Z,100.00
2019-02-17T21:24:11.243Z,100.00
2019-02-17T21:26:38.487Z,100.00
2019-02-17T21:29:05.497Z,100.00
2019-02-17T21:31:32.315Z,100.00
2019-02-17T21:33:59.538Z,100.00
2019-02-17T21:36:26.546Z,100.00
2019-02-17T21:38:53.244Z,100.00
2019-02-17T21:41:20.409Z,100.00
2019-02-17T21:43:47.999Z,100.00
2019-02-17T21:46:17.598Z,100.00
2019-02-17T21:48:45.086Z,100.00
2019-02-17T21:51:11.865Z,100.00
2019-02-17T21:53:38.783Z,100.00
2019-02-17T21:56:05.473Z,100.00
2019-02-17T21:58:33.470Z,100.00
2019-02-17T22:01:00.150Z,100.00
2019-02-17T22:03:27.693Z,100.00
2019-02-17T22:05:54.737Z,100.00
2019-02-17T22:08:22.795Z,100.00
2019-02-17T22:10:49.735Z,100.00
2019-02-17T22:13:17.374Z,100.00
2019-02-17T22:15:44.446Z,100.00
2019-02-17T22:18:11.149Z,100.00
2019-02-17T22:20:39.028Z,100.00
2019-02-17T22:23:05.699Z,100.00
2019-02-17T22:25:32.883Z,100.00
2019-02-17T22:27:59.553Z,100.00
2019-02-17T22:30:26.790Z,100.00
2019-02-17T22:32:53.687Z,100.00
2019-02-17T22:35:21.665Z,100.00
2019-02-17T22:37:48.893Z,100.00
2019-02-17T22:40:15.613Z,100.00
2019-02-17T22:42:42.664Z,100.00
2019-02-17T22:45:10.284Z,100.00
2019-02-17T22:47:37.674Z,100.00
2019-02-17T22:50:07.600Z,100.00
2019-02-17T22:52:34.917Z,100.00
2019-02-17T22:55:02.055Z,100.00
2019-02-17T22:57:29.549Z,100.00
2019-02-17T22:59:57.372Z,100.00
2019-02-17T23:02:25.236Z,100.00
2019-02-17T23:04:52.274Z,100.00
2019-02-17T23:07:19.055Z,100.00
2019-02-17T23:09:46.157Z,100.00
2019-02-17T23:12:13.801Z,100.00
2019-02-17T23:14:40.933Z,100.00
2019-02-17T23:17:07.551Z,100.00
2019-02-17T23:19:35.354Z,100.00
2019-02-17T23:22:02.040Z,100.00
2019-02-17T23:24:29.316Z,100.00
2019-02-17T23:26:56.469Z,100.00
2019-02-17T23:29:23.763Z,100.00
2019-02-17T23:31:51.999Z,100.00
2019-02-17T23:34:19.187Z,100.00
2019-02-17T23:36:46.501Z,100.00
2019-02-17T23:39:14.013Z,100.00
2019-02-17T23:41:41.551Z,100.00
2019-02-17T23:44:09.086Z,100.00
2019-02-17T23:46:36.660Z,100.00
2019-02-17T23:49:03.914Z,100.00
2019-02-17T23:51:30.674Z,100.00
2019-02-17T23:53:57.675Z,100.00
2019-02-17T23:56:24.362Z,100.00
2019-02-17T23:58:51.345Z,100.00
